Airfield :
LOGIN :

Register | Disclaimer

   EN    FR    IT 

 










Legend :    VFR   Marginal VFR   IFR   Intensive IFR   Very Intensive IFR
Visi :
Ceiling :
>= 8 km
>= 3000ft
5 to 8 km
1000 to 3000 ft
1500m to 5 km
500 to 1000 ft
800 to 1500m
200 to 500 ft
< 800m
< 200 ft
Symbols :   Thunderstorms  Fog  Heavy snow  Heavy precipitations  Wind > 20 kt
SIGMETs :     Misc.  Thunderstorms  Icing  Turbulence  Mountain Waves  Volcanic Ashes







- Airport Elevation : 306 ft
- IATA code : EMA
- Download approach charts


EGNX - Nottingham East Midlands

CURRENT METAR :
  • 231620Z 27005KT 9999 VCSH SCT020 BKN039 17/12 Q1011

EXPIRED METARs :
  • 231550Z 33004KT 9999 VCSH SCT020 17/12 Q1011
  • 231520Z 32010KT 290V360 9999 VCSH SCT040 20/11 Q1011
  • 231450Z 33009KT 9999 SCT036 19/09 Q1011
  • 231420Z 29007KT 250V360 9999 SCT038 20/11 Q1011
  • 231350Z 34007KT 310V010 9999 FEW048 19/10 Q1011

TAF TAF EGNX
Valid from the 23 at 12:00 until the 24 at 12:00 UTC


231057Z 2312/2412 30010KT 9999 SCT025
TEMPO 2312/2318 7000 SHRA
PROB30
TEMPO 2312/2317 4000 +TSRAGS
TEMPO 2321/2409 8000 -RA BKN012
ATIS : +44 1332 852 852 (ext 3201)
No reported NOTAMs for that airfield.



MET'MAP, your aeronautical weather chart ! - Copyright ORBIFLY December 2007 - Disclaimer

ORBIFLY MET'MAP TEAM :

Programming & Development : Alexandra Zaïnal
Concept & Development : Baudouin d'Aumeries
Co-Development & Prog : Marc-Olivier Méhu
Technical & hardware support : Manuel Goepfert

Contact : metmap@orbifly.com




SOURCES & CREDITS :

   NOAA